Time;durP1;ratioP1;P1;durP2;ratioP2;P2;SDS_P1;SDS_P2;PMS_P1;PMS_P2;Temp;Humidity;BMP_temperature;BMP_pressure;BME280_temperature;BME280_humidity;BME280_pressure;Samples;Min_cycle;Max_cycle;Signal;HPM_P1;HPM_P2
2021/10/22 00:00:14;;;;;;;6.45;3.55;;;6.20;99.90;;;;;;6242665;23;20024;-89
2021/10/22 00:03:07;;;;;;;3.85;3.00;;;6.10;99.90;;;;;;6242654;23;20102;-88
2021/10/22 00:05:56;;;;;;;5.05;3.83;;;6.10;99.90;;;;;;6244420;23;20378;-87
2021/10/22 00:08:44;;;;;;;6.80;3.25;;;6.10;99.90;;;;;;6223562;23;20020;-88
2021/10/22 00:11:31;;;;;;;7.05;3.80;;;6.10;99.90;;;;;;6245167;23;20023;-89
2021/10/22 00:14:21;;;;;;;5.40;3.58;;;6.20;99.90;;;;;;6243126;23;20028;-87
2021/10/22 00:17:11;;;;;;;7.00;3.90;;;6.20;99.90;;;;;;6221351;23;20347;-86
2021/10/22 00:20:02;;;;;;;6.32;3.85;;;6.30;99.90;;;;;;6221892;23;20418;-87
2021/10/22 00:22:50;;;;;;;8.45;3.88;;;6.30;99.90;;;;;;6242401;23;20024;-87
2021/10/22 00:25:41;;;;;;;5.32;3.55;;;6.30;99.90;;;;;;6202704;23;20024;-87
2021/10/22 00:28:28;;;;;;;6.60;4.30;;;6.30;99.90;;;;;;6222383;23;20035;-87
2021/10/22 00:31:16;;;;;;;11.02;3.53;;;6.30;99.90;;;;;;6222989;23;20032;-88
2021/10/22 00:34:05;;;;;;;7.63;3.75;;;6.30;99.90;;;;;;6228636;23;20039;-87
2021/10/22 00:37:00;;;;;;;4.82;3.55;;;6.30;99.90;;;;;;6228973;23;20028;-88
2021/10/22 00:47:24;;;;;;;8.75;4.28;;;6.20;99.90;;;;;;6271029;22;20026;-90
2021/10/22 00:50:12;;;;;;;7.70;3.95;;;6.20;99.90;;;;;;6261125;22;20023;-89
2021/10/22 00:53:01;;;;;;;6.63;3.60;;;6.20;99.90;;;;;;6283232;22;20023;-91
2021/10/22 00:55:51;;;;;;;5.13;3.58;;;6.10;99.90;;;;;;6240803;22;20429;-91
2021/10/22 00:58:43;;;;;;;7.90;3.80;;;6.10;99.90;;;;;;6304964;22;20046;-91
2021/10/22 01:01:30;;;;;;;8.02;3.75;;;6.10;99.90;;;;;;6306613;22;20111;-91
2021/10/22 01:04:18;;;;;;;6.88;4.07;;;6.10;99.90;;;;;;6304771;22;20414;-90
2021/10/22 01:07:07;;;;;;;6.95;3.97;;;6.10;99.90;;;;;;6304755;22;20578;-90
2021/10/22 01:09:54;;;;;;;7.70;3.40;;;6.20;99.90;;;;;;6306200;22;20095;-92
2021/10/22 01:12:44;;;;;;;5.88;3.25;;;6.20;99.90;;;;;;6283335;22;20425;-91
2021/10/22 01:15:31;;;;;;;14.60;3.88;;;6.20;99.90;;;;;;6305323;22;20112;-90
2021/10/22 01:18:19;;;;;;;7.00;3.58;;;6.20;99.90;;;;;;6305262;22;20045;-90
2021/10/22 01:21:10;;;;;;;7.63;3.65;;;6.20;99.90;;;;;;6304769;22;20154;-91
2021/10/22 01:23:57;;;;;;;7.60;3.50;;;6.30;99.90;;;;;;6304817;22;20051;-89
2021/10/22 01:26:44;;;;;;;8.90;3.55;;;6.30;99.90;;;;;;6263050;22;20412;-90
2021/10/22 01:29:31;;;;;;;7.95;3.40;;;6.20;99.90;;;;;;6306391;22;20056;-91
2021/10/22 01:32:18;;;;;;;7.90;3.83;;;6.30;99.90;;;;;;6304383;22;20087;-90
2021/10/22 01:35:07;;;;;;;6.60;2.90;;;6.20;99.90;;;;;;6304132;22;20059;-91
2021/10/22 01:37:57;;;;;;;8.85;3.53;;;6.20;99.90;;;;;;6305223;22;20055;-91
2021/10/22 01:40:45;;;;;;;9.48;3.47;;;6.30;99.90;;;;;;6305046;22;20084;-92
2021/10/22 01:43:35;;;;;;;12.27;3.58;;;6.30;99.90;;;;;;6305219;22;20031;-92
2021/10/22 01:46:22;;;;;;;7.07;3.45;;;6.20;99.90;;;;;;6306214;22;20398;-90
2021/10/22 01:49:12;;;;;;;10.15;3.70;;;6.20;99.90;;;;;;6304028;22;20089;-91
2021/10/22 01:52:00;;;;;;;9.25;3.80;;;6.10;99.90;;;;;;6262422;22;20031;-90
2021/10/22 01:54:49;;;;;;;9.48;3.72;;;6.10;99.90;;;;;;6303354;22;20035;-90
2021/10/22 01:57:36;;;;;;;9.95;4.03;;;6.20;99.90;;;;;;6304500;22;20088;-91
2021/10/22 02:00:24;;;;;;;9.73;3.70;;;6.20;99.90;;;;;;6283667;22;20039;-90
2021/10/22 02:03:11;;;;;;;14.75;4.47;;;6.20;99.90;;;;;;6282215;22;20053;-90
2021/10/22 02:05:59;;;;;;;10.07;4.13;;;6.20;99.90;;;;;;6283070;22;20023;-91
2021/10/22 02:08:46;;;;;;;10.35;3.53;;;6.10;99.90;;;;;;6261338;22;20070;-90
2021/10/22 02:11:36;;;;;;;14.93;4.68;;;6.10;99.90;;;;;;6284152;22;20085;-91
2021/10/22 02:14:26;;;;;;;8.48;4.15;;;6.10;99.90;;;;;;6304536;22;20031;-91
2021/10/22 02:17:14;;;;;;;9.98;4.05;;;6.10;99.90;;;;;;6282709;22;20160;-90
2021/10/22 02:20:03;;;;;;;8.57;3.67;;;6.10;99.90;;;;;;6283780;22;20166;-92
2021/10/22 02:22:50;;;;;;;10.60;3.65;;;6.10;99.90;;;;;;6306448;22;20307;-91
2021/10/22 02:25:41;;;;;;;8.20;3.50;;;6.10;99.90;;;;;;6305921;22;20077;-91
2021/10/22 02:28:28;;;;;;;7.82;3.72;;;6.10;99.90;;;;;;6311554;22;20027;-89
2021/10/22 02:31:16;;;;;;;10.73;3.28;;;6.10;99.90;;;;;;6263923;22;20111;-88
2021/10/22 02:34:03;;;;;;;13.32;3.55;;;6.10;99.90;;;;;;6305060;22;20023;-90
2021/10/22 02:36:51;;;;;;;7.40;2.90;;;6.10;99.90;;;;;;6288719;22;20019;-91
2021/10/22 02:39:41;;;;;;;11.80;3.40;;;6.00;99.90;;;;;;6316022;22;20073;-91
2021/10/22 02:42:28;;;;;;;7.22;2.78;;;6.00;99.90;;;;;;6314536;22;20127;-90
2021/10/22 02:45:16;;;;;;;8.57;3.25;;;6.00;99.90;;;;;;6287633;22;20111;-90
2021/10/22 02:48:03;;;;;;;12.45;3.80;;;6.00;99.90;;;;;;6283371;22;20126;-90
2021/10/22 02:50:50;;;;;;;7.70;3.25;;;5.90;99.90;;;;;;6287852;22;20076;-90
2021/10/22 02:53:38;;;;;;;12.65;3.53;;;5.80;99.90;;;;;;6322227;22;20007;-91
2021/10/22 02:56:25;;;;;;;12.50;3.10;;;5.70;99.90;;;;;;6319863;22;20081;-90
2021/10/22 02:59:12;;;;;;;12.10;3.28;;;5.60;99.90;;;;;;6305484;22;20112;-90
2021/10/22 03:01:59;;;;;;;13.27;3.55;;;5.50;99.90;;;;;;6305333;22;20414;-90
2021/10/22 03:04:51;;;;;;;12.45;3.08;;;5.30;99.90;;;;;;6288231;22;20031;-91
2021/10/22 03:07:39;;;;;;;10.80;3.40;;;5.20;99.90;;;;;;6308493;22;20030;-90
2021/10/22 03:10:27;;;;;;;15.05;3.50;;;5.10;99.90;;;;;;6306573;22;20108;-90
2021/10/22 03:13:17;;;;;;;16.60;4.55;;;5.00;99.90;;;;;;6305740;22;20023;-91
2021/10/22 03:16:05;;;;;;;12.13;3.65;;;4.90;99.90;;;;;;6282215;22;20119;-91
2021/10/22 03:18:52;;;;;;;19.33;4.03;;;4.90;99.90;;;;;;6307470;22;20035;-92
2021/10/22 03:21:41;;;;;;;16.50;3.80;;;4.80;99.90;;;;;;6308171;22;20058;-91
2021/10/22 03:24:31;;;;;;;22.98;4.65;;;4.70;99.90;;;;;;6304836;22;20030;-89
2021/10/22 03:27:23;;;;;;;17.55;4.00;;;4.60;99.90;;;;;;6286040;22;20027;-91
2021/10/22 03:30:11;;;;;;;17.25;4.60;;;4.50;99.90;;;;;;6283947;22;20051;-90
2021/10/22 03:32:58;;;;;;;23.02;4.28;;;4.50;99.90;;;;;;6304935;22;20023;-91
2021/10/22 03:35:50;;;;;;;20.90;4.63;;;4.50;99.90;;;;;;6303536;22;20365;-90
2021/10/22 03:38:38;;;;;;;20.15;4.20;;;4.40;99.90;;;;;;6284480;22;20038;-91
2021/10/22 03:41:25;;;;;;;20.15;4.07;;;4.30;99.90;;;;;;6261218;22;20023;-90
2021/10/22 03:44:13;;;;;;;20.63;4.85;;;4.20;99.90;;;;;;6304765;22;20496;-90
2021/10/22 03:47:03;;;;;;;17.98;4.68;;;4.20;99.90;;;;;;6303302;22;20122;-90
2021/10/22 03:49:54;;;;;;;32.53;5.00;;;4.10;99.90;;;;;;6260782;22;20088;-89
2021/10/22 03:52:42;;;;;;;19.88;4.82;;;4.00;99.90;;;;;;6302649;22;20100;-90
2021/10/22 03:55:32;;;;;;;22.05;4.63;;;3.90;99.90;;;;;;6280669;22;20096;-90
2021/10/22 03:58:19;;;;;;;15.55;4.05;;;3.70;99.90;;;;;;6282887;22;20096;-89
2021/10/22 04:01:11;;;;;;;24.20;5.03;;;3.60;99.90;;;;;;6304089;22;20027;-90
2021/10/22 04:03:59;;;;;;;20.23;4.65;;;3.50;99.90;;;;;;6304391;22;20023;-91
2021/10/22 04:06:46;;;;;;;21.95;5.22;;;3.40;99.90;;;;;;6285508;22;20019;-90
2021/10/22 04:09:35;;;;;;;28.00;4.32;;;3.40;99.90;;;;;;6305817;22;20125;-91
2021/10/22 04:12:22;;;;;;;22.42;5.32;;;3.40;99.90;;;;;;6304651;22;20023;-89
2021/10/22 04:15:09;;;;;;;29.08;5.13;;;3.30;99.90;;;;;;6304302;22;20126;-91
2021/10/22 04:17:56;;;;;;;19.90;4.53;;;3.40;99.90;;;;;;6263321;22;20380;-90
2021/10/22 04:20:44;;;;;;;26.90;5.00;;;3.40;99.90;;;;;;6285405;22;20088;-89
2021/10/22 04:23:34;;;;;;;33.25;5.35;;;3.30;99.90;;;;;;6307481;22;20038;-91
2021/10/22 04:26:21;;;;;;;23.48;4.43;;;3.20;99.90;;;;;;6310908;22;20024;-90
2021/10/22 04:29:08;;;;;;;29.73;5.70;;;3.20;99.90;;;;;;6283971;22;20148;-90
2021/10/22 04:31:55;;;;;;;34.83;8.05;;;3.10;99.90;;;;;;6312819;22;20032;-92
2021/10/22 04:34:43;;;;;;;24.17;5.85;;;3.10;99.90;;;;;;6307828;22;20027;-91
2021/10/22 04:38:00;;;;;;;37.45;6.18;;;3.10;99.90;;;;;;6282974;22;20023;-90
2021/10/22 04:40:54;;;;;;;21.48;5.32;;;3.20;99.90;;;;;;6306657;22;20114;-89
2021/10/22 04:43:41;;;;;;;22.73;5.80;;;3.30;99.90;;;;;;6305721;22;20027;-90
2021/10/22 04:46:28;;;;;;;27.20;6.82;;;3.30;99.90;;;;;;6303557;22;20069;-90
2021/10/22 04:49:18;;;;;;;27.02;6.25;;;3.30;99.90;;;;;;6280879;22;20030;-89
2021/10/22 04:52:05;;;;;;;27.50;6.15;;;3.30;99.90;;;;;;6280620;22;20034;-90
2021/10/22 04:54:52;;;;;;;26.48;6.28;;;3.30;99.90;;;;;;6302077;22;20197;-89
2021/10/22 04:57:42;;;;;;;20.02;6.07;;;3.30;99.90;;;;;;6302569;22;20106;-90
2021/10/22 05:00:29;;;;;;;24.42;5.90;;;3.30;99.90;;;;;;6280076;22;20023;-90
2021/10/22 05:03:19;;;;;;;20.58;6.35;;;3.20;99.90;;;;;;6281809;22;20019;-89
2021/10/22 05:06:10;;;;;;;26.20;6.72;;;3.30;99.90;;;;;;6284054;22;20329;-90
2021/10/22 05:08:57;;;;;;;22.20;6.15;;;3.30;99.90;;;;;;6303238;22;20027;-89
2021/10/22 05:11:46;;;;;;;29.08;6.00;;;3.20;99.90;;;;;;6302740;22;20050;-90
2021/10/22 05:14:34;;;;;;;22.48;6.10;;;3.10;99.90;;;;;;6300891;22;20161;-87
2021/10/22 05:17:25;;;;;;;19.52;6.13;;;3.10;99.90;;;;;;6279905;22;20058;-88
2021/10/22 05:20:13;;;;;;;25.42;5.90;;;3.10;99.90;;;;;;6284136;22;20137;-87
2021/10/22 05:23:02;;;;;;;23.95;5.95;;;3.10;99.90;;;;;;6302380;22;20023;-87
2021/10/22 05:25:49;;;;;;;32.58;5.95;;;3.10;99.90;;;;;;6305927;22;20072;-90
2021/10/22 05:28:36;;;;;;;30.67;6.68;;;3.10;99.90;;;;;;6305749;22;20073;-92
2021/10/22 05:31:26;;;;;;;29.73;5.95;;;3.10;99.90;;;;;;6285895;22;20065;-91
2021/10/22 05:34:16;;;;;;;24.83;6.72;;;3.10;99.90;;;;;;6294088;22;20346;-92
2021/10/22 05:37:06;;;;;;;23.98;5.75;;;3.00;99.90;;;;;;6307893;22;20031;-92
2021/10/22 05:39:55;;;;;;;22.63;6.10;;;3.00;99.90;;;;;;6304124;22;20031;-92
2021/10/22 05:42:42;;;;;;;22.05;6.30;;;3.00;99.90;;;;;;6283308;22;20463;-91
2021/10/22 05:45:30;;;;;;;42.00;6.75;;;3.00;99.90;;;;;;6265064;22;20047;-93
2021/10/22 05:48:19;;;;;;;25.27;6.13;;;3.00;99.90;;;;;;6313649;22;20086;-92
2021/10/22 05:51:08;;;;;;;31.73;7.13;;;3.00;99.90;;;;;;6288562;22;20649;-93
2021/10/22 05:53:57;;;;;;;30.45;6.82;;;3.00;99.90;;;;;;6314280;22;20027;-94
2021/10/22 06:26:18;;;;;;;42.78;7.05;;;3.20;99.90;;;;;;6092989;23;20500;-92
2021/10/22 06:29:29;;;;;;;31.65;6.03;;;3.20;99.90;;;;;;6023556;23;20420;-92
2021/10/22 06:32:16;;;;;;;33.80;6.07;;;3.30;99.90;;;;;;6162650;23;20028;-91
2021/10/22 06:35:06;;;;;;;28.10;6.85;;;3.40;99.90;;;;;;6161237;23;20031;-90
2021/10/22 06:37:58;;;;;;;31.60;6.95;;;3.40;99.90;;;;;;6181845;23;20055;-90
2021/10/22 06:40:46;;;;;;;24.30;5.90;;;3.50;99.90;;;;;;6145006;23;20293;-91
2021/10/22 06:44:04;;;;;;;;;;;;;;;;;;;;;
2021/10/22 07:20:54;;;;;;;;;;;;;;;;;;;;;
2021/10/22 07:24:05;;;;;;;;;;;;;;;;;;;;;
2021/10/22 07:31:51;;;;;;;25.65;4.43;;;6.60;99.90;;;;;;6006869;23;20031;-91
2021/10/22 07:42:03;;;;;;;20.13;4.38;;;6.40;99.90;;;;;;6047323;23;20011;-92
2021/10/22 07:52:19;;;;;;;;;;;;;;;;;;;;;
2021/10/22 08:09:25;;;;;;;15.77;3.30;;;7.70;99.90;;;;;;6273494;22;20042;-91
2021/10/22 08:17:07;;;;;;;20.77;2.80;;;7.90;99.90;;;;;;6123724;23;20014;-92
2021/10/22 08:20:55;;;;;;;;;;;;;;;;;;;;;
2021/10/22 08:24:43;;;;;;;17.10;3.47;;;7.70;99.90;;;;;;5983920;24;20024;-91
2021/10/22 08:28:08;;;;;;;21.13;3.28;;;7.70;99.90;;;;;;6064425;23;20199;-89
2021/10/22 08:31:51;;;;;;;22.17;3.42;;;7.90;99.90;;;;;;6058611;23;20122;-92
2021/10/22 08:39:50;;;;;;;23.52;3.80;;;8.30;99.90;;;;;;6056854;23;20070;-90
2021/10/22 08:43:06;;;;;;;22.95;3.67;;;8.60;99.90;;;;;;6103367;23;20588;-85
2021/10/22 08:46:21;;;;;;;10.38;3.00;;;8.80;99.90;;;;;;6158603;23;20026;-87
2021/10/22 08:49:18;;;;;;;;;;;9.10;99.90;;;;;;6136670;23;20026;-90
2021/10/22 08:52:33;;;;;;;17.85;3.13;;;9.30;99.90;;;;;;6151999;23;19968;-89
2021/10/22 08:55:45;;;;;;;16.13;3.47;;;9.50;99.90;;;;;;6148150;23;20037;-89
2021/10/22 08:58:48;;;;;;;17.27;3.58;;;9.70;99.90;;;;;;6115991;23;20120;-87
2021/10/22 09:02:14;;;;;;;25.25;3.95;;;9.90;99.90;;;;;;6131830;23;20396;-90
2021/10/22 09:06:14;;;;;;;15.18;3.35;;;9.90;99.90;;;;;;6142054;23;20025;-89
2021/10/22 09:09:16;;;;;;;14.68;3.03;;;10.20;99.90;;;;;;6152507;23;20032;-84
2021/10/22 09:12:08;;;;;;;17.33;3.35;;;10.50;99.90;;;;;;6132896;23;20398;-87
2021/10/22 09:15:03;;;;;;;15.80;2.35;;;11.10;99.90;;;;;;6136329;23;20025;-89
2021/10/22 09:17:59;;;;;;;13.55;3.15;;;11.90;99.40;;;;;;6164852;23;20041;-88
2021/10/22 09:21:23;;;;;;;;;;;;;;;;;;;;;
2021/10/22 09:24:40;;;;;;;14.50;2.55;;;14.00;92.50;;;;;;6170192;23;20025;-87
2021/10/22 09:27:42;;;;;;;10.38;2.47;;;15.50;81.10;;;;;;6176702;23;20050;-88
2021/10/22 09:34:39;;;;;;;10.02;2.33;;;16.90;66.80;;;;;;6163541;23;20049;-88
2021/10/22 09:37:39;;;;;;;7.43;2.15;;;17.00;66.20;;;;;;6166267;23;20104;-89
2021/10/22 09:41:28;;;;;;;;;;;;;;;;;;;;;
2021/10/22 09:44:55;;;;;;;;;;;;;;;;;;;;;
2021/10/22 09:47:53;;;;;;;9.85;2.30;;;17.70;59.60;;;;;;6156289;23;20029;-89
2021/10/22 09:50:42;;;;;;;8.10;2.20;;;17.10;62.10;;;;;;6136825;23;20029;-87
2021/10/22 09:53:49;;;;;;;;;;;;;;;;;;;;;
2021/10/22 10:00:27;;;;;;;8.23;2.50;;;18.40;55.40;;;;;;6129887;23;20043;-89
2021/10/22 10:03:28;;;;;;;;;;;;;;;;;;;;;
2021/10/22 10:06:40;;;;;;;8.73;2.13;;;18.20;53.50;;;;;;6121604;23;20028;-88
2021/10/22 10:10:01;;;;;;;7.25;1.65;;;19.50;49.70;;;;;;6102033;23;20021;-88
2021/10/22 10:12:54;;;;;;;7.68;1.90;;;19.00;49.50;;;;;;6123713;23;20046;-90
2021/10/22 10:15:50;;;;;;;7.38;1.88;;;19.30;48.60;;;;;;6084704;23;20036;-90
2021/10/22 10:18:48;;;;;;;7.22;2.33;;;19.90;45.80;;;;;;6103533;23;20358;-89
2021/10/22 10:22:00;;;;;;;9.63;1.92;;;20.40;45.20;;;;;;6126368;23;20026;-89
2021/10/22 10:25:04;;;;;;;6.63;1.80;;;20.50;42.30;;;;;;6106689;23;20022;-89
2021/10/22 10:28:00;;;;;;;;;;;20.80;44.00;;;;;;6122964;23;20071;-88
2021/10/22 10:30:59;;;;;;;;;;;;;;;;;;;;;
2021/10/22 10:37:44;;;;;;;5.13;1.20;;;21.50;41.10;;;;;;6129346;23;20433;-87
2021/10/22 10:40:35;;;;;;;3.95;1.17;;;20.90;38.00;;;;;;6103459;23;20058;-87
2021/10/22 10:43:50;;;;;;;5.78;1.42;;;19.90;40.40;;;;;;6122303;23;20026;-88
2021/10/22 10:46:56;;;;;;;6.60;1.33;;;20.40;40.70;;;;;;6109692;23;20090;-88
2021/10/22 10:49:50;;;;;;;7.78;1.75;;;21.50;39.10;;;;;;6102904;23;20026;-86
2021/10/22 10:52:50;;;;;;;4.20;1.20;;;21.10;40.60;;;;;;6123124;23;20085;-88
2021/10/22 10:56:01;;;;;;;;;;;;;;;;;;;;;
2021/10/22 10:59:04;;;;;;;7.13;1.52;;;19.30;44.60;;;;;;6125803;23;20029;-90
2021/10/22 11:02:04;;;;;;;;;;;;;;;;;;;;;
2021/10/22 11:05:00;;;;;;;6.22;1.20;;;18.20;44.20;;;;;;6110719;23;20124;-89
2021/10/22 11:07:54;;;;;;;6.45;1.45;;;18.90;42.30;;;;;;6105572;23;20026;-90
2021/10/22 11:11:20;;;;;;;4.22;1.38;;;19.10;41.10;;;;;;6122225;23;20026;-89
2021/10/22 11:14:08;;;;;;;6.43;1.90;;;19.40;41.30;;;;;;6103406;23;20097;-87
2021/10/22 11:17:01;;;;;;;6.80;2.00;;;20.20;39.40;;;;;;6105564;23;20049;-89
2021/10/22 11:20:00;;;;;;;3.85;1.30;;;20.50;39.40;;;;;;6107375;23;20030;-89
2021/10/22 11:22:57;;;;;;;6.85;1.25;;;21.00;39.20;;;;;;6104937;23;20382;-87
2021/10/22 11:25:56;;;;;;;4.20;1.30;;;22.00;37.20;;;;;;6083859;23;20279;-87
2021/10/22 11:29:02;;;;;;;;;;;;;;;;;;;;;
2021/10/22 11:32:24;;;;;;;4.78;1.20;;;21.90;38.10;;;;;;6013031;23;20106;-90
2021/10/22 11:35:32;;;;;;;5.78;1.10;;;21.70;33.50;;;;;;5993133;23;20051;-88
2021/10/22 11:39:13;;;;;;;;;;;;;;;;;;;;;
2021/10/22 11:42:29;;;;;;;3.35;1.20;;;20.10;38.00;;;;;;5914904;24;20158;-87
2021/10/22 11:45:41;;;;;;;5.63;1.45;;;20.70;38.00;;;;;;5913374;24;20049;-91
2021/10/22 11:49:10;;;;;;;4.28;1.17;;;21.40;37.60;;;;;;5912894;24;20035;-88
2021/10/22 11:52:09;;;;;;;5.32;1.10;;;20.70;34.10;;;;;;5986370;23;20019;-87
2021/10/22 11:55:07;;;;;;;4.45;1.20;;;20.10;35.30;;;;;;5995549;24;20036;-89
2021/10/22 11:58:05;;;;;;;8.35;5.60;;;20.20;33.90;;;;;;5983730;24;20028;-88
2021/10/22 12:00:56;;;;;;;6.80;1.20;;;20.10;32.50;;;;;;6124537;23;20026;-88
2021/10/22 12:04:07;;;;;;;4.10;0.80;;;19.60;31.30;;;;;;6123304;23;20056;-90
2021/10/22 12:07:32;;;;;;;2.63;0.85;;;19.50;32.30;;;;;;6123488;23;20029;-87
2021/10/22 12:10:30;;;;;;;4.43;1.20;;;20.10;32.70;;;;;;6110992;23;20061;-88
2021/10/22 12:13:47;;;;;;;4.40;1.00;;;20.10;33.00;;;;;;6090536;23;20346;-88
2021/10/22 12:17:15;;;;;;;7.00;1.50;;;19.10;35.20;;;;;;6115858;23;20053;-88
2021/10/22 12:20:17;;;;;;;;;;;;;;;;;;;;;
2021/10/22 12:23:14;;;;;;;5.25;1.27;;;20.10;35.30;;;;;;6130916;23;19973;-86
2021/10/22 12:26:02;;;;;;;4.35;1.13;;;19.00;35.90;;;;;;6107734;23;20030;-87
2021/10/22 12:29:15;;;;;;;5.80;1.20;;;18.20;36.80;;;;;;6254344;23;20024;-86
2021/10/22 12:32:06;;;;;;;3.33;1.10;;;17.80;37.20;;;;;;6250073;23;20387;-87
2021/10/22 12:35:10;;;;;;;5.00;1.40;;;18.40;36.30;;;;;;6242676;23;20028;-86
2021/10/22 12:38:11;;;;;;;7.40;1.33;;;18.40;37.20;;;;;;6249536;22;20078;-89
2021/10/22 12:41:18;;;;;;;4.57;1.50;;;19.60;37.20;;;;;;6240484;23;20115;-89
2021/10/22 12:44:31;;;;;;;4.85;1.27;;;20.80;34.90;;;;;;6236659;23;20035;-87
2021/10/22 12:47:19;;;;;;;;;;;21.90;33.40;;;;;;6245335;23;20086;-86
2021/10/22 12:50:06;;;;;;;5.93;1.30;;;22.10;31.10;;;;;;6246747;23;19938;-88
2021/10/22 12:53:01;;;;;;;6.82;1.42;;;21.00;31.90;;;;;;6244565;23;20035;-87
2021/10/22 12:56:06;;;;;;;6.97;1.35;;;19.50;35.60;;;;;;6246025;23;20446;-91
2021/10/22 12:59:02;;;;;;;4.70;1.20;;;19.90;35.50;;;;;;6254145;22;20024;-89
2021/10/22 13:01:52;;;;;;;6.25;1.40;;;20.80;33.90;;;;;;6287409;22;20333;-88
2021/10/22 13:04:42;;;;;;;5.95;1.27;;;21.30;31.40;;;;;;6310675;22;20097;-87
2021/10/22 13:07:51;;;;;;;5.50;1.50;;;21.10;31.80;;;;;;6286275;22;20042;-89
2021/10/22 13:22:57;;;;;;;3.85;1.27;;;19.50;34.60;;;;;;6309028;22;20375;-89
2021/10/22 13:25:46;;;;;;;5.20;1.35;;;19.00;35.60;;;;;;6284485;22;20126;-87
2021/10/22 13:28:38;;;;;;;3.80;1.25;;;18.70;36.20;;;;;;6309642;22;20103;-89
2021/10/22 13:31:28;;;;;;;6.10;1.45;;;19.50;35.70;;;;;;6311633;22;20049;-85
2021/10/22 13:34:16;;;;;;;4.50;1.58;;;20.10;35.50;;;;;;6292934;22;20038;-87
2021/10/22 13:37:26;;;;;;;8.18;1.80;;;20.00;34.30;;;;;;6306797;22;20118;-87
2021/10/22 13:40:14;;;;;;;4.57;1.38;;;20.00;34.00;;;;;;6285189;22;20432;-87
2021/10/22 13:43:03;;;;;;;5.53;1.10;;;20.30;34.10;;;;;;6286060;22;20084;-87
2021/10/22 13:45:55;;;;;;;6.85;1.48;;;20.40;34.20;;;;;;6268946;22;20030;-88
2021/10/22 13:48:43;;;;;;;3.92;1.27;;;20.10;34.00;;;;;;6310409;22;20098;-88
2021/10/22 13:51:31;;;;;;;4.70;1.38;;;20.20;34.80;;;;;;6313273;22;20049;-89
2021/10/22 13:54:22;;;;;;;2.67;1.17;;;19.90;35.60;;;;;;6293916;22;20058;-89
2021/10/22 13:57:14;;;;;;;4.03;1.05;;;19.80;36.10;;;;;;6290940;22;20033;-91
2021/10/22 14:00:03;;;;;;;7.32;1.70;;;19.40;37.00;;;;;;6313232;22;20039;-89
2021/10/22 14:02:55;;;;;;;5.18;1.40;;;19.40;37.40;;;;;;6294702;22;20035;-87
2021/10/22 14:05:53;;;;;;;7.10;1.80;;;19.70;37.60;;;;;;6294410;22;20019;-87
2021/10/22 14:08:40;;;;;;;4.22;1.27;;;19.80;37.60;;;;;;6318040;22;20023;-89
2021/10/22 14:11:36;;;;;;;6.53;2.00;;;20.10;38.00;;;;;;6297477;22;20029;-87
2021/10/22 14:14:33;;;;;;;5.80;1.70;;;20.60;37.10;;;;;;6295197;22;20027;-86
2021/10/22 14:17:40;;;;;;;6.50;1.73;;;20.50;37.80;;;;;;6304653;22;20034;-86
2021/10/22 14:29:56;;;;;;;4.95;1.88;;;19.50;38.50;;;;;;6307034;22;20081;-85
2021/10/22 14:32:46;;;;;;;4.82;1.50;;;17.40;41.90;;;;;;6324314;22;20037;-87
2021/10/22 14:35:35;;;;;;;9.38;1.70;;;16.40;44.00;;;;;;6322693;22;20033;-86
2021/10/22 14:38:24;;;;;;;8.85;1.45;;;15.60;47.20;;;;;;6322206;22;20023;-87
2021/10/22 14:41:15;;;;;;;4.75;1.50;;;15.70;46.40;;;;;;6325644;22;20024;-87
2021/10/22 14:44:06;;;;;;;7.03;1.83;;;16.00;46.60;;;;;;6300426;22;20020;-89
2021/10/22 14:47:00;;;;;;;3.53;1.45;;;16.10;45.70;;;;;;6303476;22;20019;-87
2021/10/22 14:49:50;;;;;;;7.10;1.33;;;15.70;47.00;;;;;;6300882;22;20111;-87
2021/10/22 14:56:03;;;;;;;6.18;1.90;;;15.00;48.00;;;;;;6275319;22;20106;-87
2021/10/22 14:58:57;;;;;;;10.77;1.98;;;14.80;48.60;;;;;;6311596;22;20019;-89
2021/10/22 15:01:47;;;;;;;6.25;1.40;;;15.00;48.60;;;;;;6308948;22;20020;-89
2021/10/22 15:04:37;;;;;;;9.98;1.70;;;15.50;47.10;;;;;;6284371;22;20019;-88
2021/10/22 15:07:26;;;;;;;7.15;1.73;;;15.20;47.80;;;;;;6297791;22;20437;-88
2021/10/22 15:10:16;;;;;;;5.93;1.45;;;15.30;48.20;;;;;;6296696;22;20051;-87
2021/10/22 15:13:07;;;;;;;5.60;1.85;;;15.00;49.00;;;;;;6292946;22;20047;-88
2021/10/22 15:15:56;;;;;;;4.18;1.40;;;15.10;49.50;;;;;;6307991;22;20026;-86
2021/10/22 15:18:44;;;;;;;5.82;1.88;;;15.00;49.50;;;;;;6306554;22;20035;-88
2021/10/22 15:21:32;;;;;;;4.50;1.52;;;15.00;49.40;;;;;;6285517;22;20426;-86
2021/10/22 15:24:28;;;;;;;5.22;1.80;;;15.30;48.90;;;;;;6307715;22;20022;-86
2021/10/22 15:27:36;;;;;;;4.75;1.58;;;14.60;50.30;;;;;;6315093;22;20020;-85
2021/10/22 15:30:26;;;;;;;6.95;1.83;;;13.60;52.10;;;;;;6285463;22;20034;-86
2021/10/22 15:33:15;;;;;;;4.90;1.90;;;12.40;55.40;;;;;;6314960;22;20055;-85
2021/10/22 15:36:10;;;;;;;4.00;1.63;;;11.40;58.20;;;;;;6290434;22;20023;-88
2021/10/22 15:38:57;;;;;;;10.85;2.05;;;10.70;60.20;;;;;;6290639;22;20318;-86
2021/10/22 15:41:44;;;;;;;5.65;2.05;;;10.50;62.20;;;;;;6306186;22;20102;-86
2021/10/22 15:44:42;;;;;;;6.03;1.98;;;10.20;63.10;;;;;;6308145;22;20070;-88
2021/10/22 15:47:31;;;;;;;4.70;1.55;;;10.40;63.40;;;;;;6310492;22;20027;-87
2021/10/22 15:50:20;;;;;;;5.10;2.22;;;10.40;64.20;;;;;;6287811;22;20031;-87
2021/10/22 15:53:10;;;;;;;6.38;2.92;;;10.10;65.50;;;;;;6282343;22;20028;-86
2021/10/22 15:55:59;;;;;;;8.48;1.98;;;9.70;67.10;;;;;;6286378;22;20088;-87
2021/10/22 15:58:49;;;;;;;9.95;2.78;;;9.50;68.80;;;;;;6284458;22;20023;-87
2021/10/22 16:01:39;;;;;;;6.30;2.25;;;9.20;70.50;;;;;;6284211;22;20326;-87
2021/10/22 16:04:29;;;;;;;5.78;2.67;;;9.00;73.70;;;;;;6307376;22;20039;-86
2021/10/22 16:07:41;;;;;;;5.70;2.15;;;8.80;74.70;;;;;;6284208;22;20019;-88
2021/10/22 16:10:47;;;;;;;7.90;3.03;;;8.60;76.00;;;;;;6306544;22;20059;-86
2021/10/22 16:13:45;;;;;;;8.02;2.08;;;8.50;77.20;;;;;;6304257;22;20054;-87
2021/10/22 16:19:42;;;;;;;12.02;3.45;;;8.20;80.10;;;;;;6305016;22;20023;-87
2021/10/22 16:22:29;;;;;;;7.13;2.65;;;8.00;81.50;;;;;;6307216;22;20035;-87
2021/10/22 16:25:16;;;;;;;6.35;2.63;;;7.90;83.40;;;;;;6307222;22;20023;-86
2021/10/22 16:28:07;;;;;;;11.43;3.10;;;7.80;85.40;;;;;;6304638;22;20033;-86
2021/10/22 16:30:57;;;;;;;12.13;3.47;;;7.70;86.80;;;;;;6285149;22;20026;-89
2021/10/22 16:36:32;;;;;;;13.07;3.90;;;7.50;90.60;;;;;;6309663;22;20129;-89
2021/10/22 16:39:20;;;;;;;9.38;3.70;;;7.40;92.30;;;;;;6305729;22;20031;-87
2021/10/22 16:42:26;;;;;;;6.47;3.90;;;7.30;94.10;;;;;;6271884;22;20038;-87
2021/10/22 16:45:16;;;;;;;13.32;3.47;;;7.20;96.40;;;;;;6310478;22;20075;-87
2021/10/22 16:48:05;;;;;;;12.98;3.92;;;7.10;98.20;;;;;;6286727;22;20041;-87
2021/10/22 16:50:55;;;;;;;7.30;3.13;;;7.00;99.90;;;;;;6309108;22;20065;-88
2021/10/22 16:53:47;;;;;;;12.30;3.58;;;6.90;99.90;;;;;;6284955;22;20423;-87
2021/10/22 16:56:35;;;;;;;9.07;3.17;;;6.90;99.90;;;;;;6306605;22;20027;-87
2021/10/22 16:59:25;;;;;;;10.57;4.18;;;6.90;99.90;;;;;;6308619;22;20049;-85
2021/10/22 17:02:13;;;;;;;10.10;2.72;;;6.90;99.90;;;;;;6318508;22;20410;-88
2021/10/22 17:05:03;;;;;;;12.60;4.10;;;6.90;99.90;;;;;;6294833;22;20023;-87
2021/10/22 17:07:51;;;;;;;12.45;4.60;;;6.90;99.90;;;;;;6319105;22;20023;-87
2021/10/22 17:10:38;;;;;;;13.65;5.10;;;6.70;99.90;;;;;;6297339;22;20046;-85
2021/10/22 17:13:26;;;;;;;8.70;3.80;;;6.60;99.90;;;;;;6326418;22;20091;-86
2021/10/22 17:16:16;;;;;;;13.75;3.67;;;6.50;99.90;;;;;;6318205;22;20048;-87
2021/10/22 17:19:05;;;;;;;8.80;3.17;;;6.40;99.90;;;;;;6317366;22;20027;-88
2021/10/22 17:21:53;;;;;;;11.35;3.10;;;6.30;99.90;;;;;;6275628;22;20508;-86
2021/10/22 17:24:41;;;;;;;8.70;3.13;;;6.20;99.90;;;;;;6318701;22;20038;-86
2021/10/22 17:27:30;;;;;;;12.43;3.90;;;6.10;99.90;;;;;;6285791;22;20058;-87
2021/10/22 17:30:20;;;;;;;15.57;4.07;;;5.90;99.90;;;;;;6305173;22;20049;-85
2021/10/22 17:33:08;;;;;;;12.77;3.15;;;5.90;99.90;;;;;;6303650;22;20059;-86
2021/10/22 17:35:56;;;;;;;10.23;3.83;;;5.80;99.90;;;;;;6306030;22;20054;-87
2021/10/22 17:38:43;;;;;;;9.55;3.60;;;5.90;99.90;;;;;;6283922;22;20085;-88
2021/10/22 17:41:31;;;;;;;18.30;4.93;;;5.80;99.90;;;;;;6292218;22;20336;-88
2021/10/22 17:44:18;;;;;;;17.45;4.50;;;5.90;99.90;;;;;;6317278;22;20027;-87
2021/10/22 17:47:06;;;;;;;11.20;4.43;;;5.90;99.90;;;;;;6296479;22;20031;-88
2021/10/22 17:49:54;;;;;;;15.75;4.32;;;6.00;99.90;;;;;;6313157;22;20015;-89
2021/10/22 17:52:42;;;;;;;13.95;4.30;;;6.10;99.90;;;;;;6306983;22;20019;-87
2021/10/22 17:55:31;;;;;;;10.80;4.20;;;6.00;99.90;;;;;;6307646;22;20049;-88
2021/10/22 17:58:21;;;;;;;13.77;3.97;;;6.00;99.90;;;;;;6308348;22;20102;-89
2021/10/22 18:01:10;;;;;;;9.77;3.83;;;6.00;99.90;;;;;;6285893;22;20456;-89
2021/10/22 18:03:58;;;;;;;10.88;3.80;;;6.00;99.90;;;;;;6307720;22;20038;-88
2021/10/22 18:06:48;;;;;;;11.85;3.80;;;6.00;99.90;;;;;;6285848;22;20077;-88
2021/10/22 18:09:36;;;;;;;17.98;4.47;;;6.10;99.90;;;;;;6266505;22;20049;-87